Time;durP1;ratioP1;P1;durP2;ratioP2;P2;SDS_P1;SDS_P2;PMS_P1;PMS_P2;Temp;Humidity;BMP_temperature;BMP_pressure;BME280_temperature;BME280_humidity;BME280_pressure;Samples;Min_cycle;Max_cycle;Signal;HPM_P1;HPM_P2
2021/06/03 00:00:35;;;;;;;8.67;7.90;;;;;;;;;;6282310;22;20515;-95
2021/06/03 00:03:01;;;;;;;9.20;8.40;;;;;;;;;;6290526;22;20405;-95
2021/06/03 00:05:28;;;;;;;8.07;7.27;;;;;;;;;;6287561;22;20514;-93
2021/06/03 00:07:55;;;;;;;8.10;7.37;;;;;;;;;;6288044;22;20410;-96
2021/06/03 00:10:23;;;;;;;9.03;8.20;;;;;;;;;;6289263;22;20452;-95
2021/06/03 00:12:49;;;;;;;7.30;6.60;;;;;;;;;;6290946;22;20433;-96
2021/06/03 00:15:15;;;;;;;8.27;7.47;;;;;;;;;;6289007;22;20959;-96
2021/06/03 00:17:43;;;;;;;9.40;8.20;;;;;;;;;;6289274;22;20469;-96
2021/06/03 00:20:11;;;;;;;8.37;7.27;;;;;;;;;;6288546;22;20449;-96
2021/06/03 00:22:47;;;;;;;8.20;7.40;;;;;;;;;;6295373;22;20439;-96
2021/06/03 00:31:07;;;;;;;11.63;8.60;;;;;;;;;;6298030;22;20432;-96
2021/06/03 00:33:35;;;;;;;10.63;9.53;;;;;;;;;;6291034;22;20481;-96
2021/06/03 00:36:01;;;;;;;12.07;9.37;;;;;;;;;;6289529;22;20448;-96
2021/06/03 00:38:27;;;;;;;9.03;7.97;;;;;;;;;;6292378;22;20413;-96
2021/06/03 00:47:01;;;;;;;10.10;9.03;;;;;;;;;;6207581;23;20391;-96
2021/06/03 00:49:29;;;;;;;14.60;8.17;;;;;;;;;;6270975;22;20452;-96
2021/06/03 00:51:55;;;;;;;11.53;9.20;;;;;;;;;;6288622;22;20417;-95
2021/06/03 00:54:22;;;;;;;10.17;9.20;;;;;;;;;;6290599;22;20711;-96
2021/06/03 00:56:48;;;;;;;8.90;8.00;;;;;;;;;;6290508;22;20452;-95
2021/06/03 00:59:14;;;;;;;11.80;9.73;;;;;;;;;;6295136;22;20421;-96
2021/06/03 01:01:40;;;;;;;9.70;8.70;;;;;;;;;;6296248;22;20393;-95
2021/06/03 01:04:07;;;;;;;9.50;8.57;;;;;;;;;;6302114;22;20487;-96
2021/06/03 01:06:34;;;;;;;9.07;8.17;;;;;;;;;;6287851;22;20967;-94
2021/06/03 01:09:01;;;;;;;12.57;10.03;;;;;;;;;;6286893;22;20442;-95
2021/06/03 01:11:30;;;;;;;10.87;8.50;;;;;;;;;;6286203;22;20424;-95
2021/06/03 01:13:58;;;;;;;11.80;8.90;;;;;;;;;;6289689;22;20416;-96
2021/06/03 01:16:25;;;;;;;11.10;9.87;;;;;;;;;;6297842;22;20404;-96
2021/06/03 01:18:53;;;;;;;11.17;9.97;;;;;;;;;;6274585;22;20449;-96
2021/06/03 01:21:29;;;;;;;9.70;8.70;;;;;;;;;;6295606;22;20444;-94
2021/06/03 01:24:00;;;;;;;10.30;9.00;;;;;;;;;;6288506;22;20419;-95
2021/06/03 01:26:30;;;;;;;9.27;8.37;;;;;;;;;;6287532;22;20430;-95
2021/06/03 01:28:57;;;;;;;11.57;10.47;;;;;;;;;;6291853;22;20683;-96
2021/06/03 01:31:23;;;;;;;10.37;9.33;;;;;;;;;;6266399;22;20423;-95
2021/06/03 01:33:50;;;;;;;11.63;10.07;;;;;;;;;;6288539;22;20454;-96
2021/06/03 01:36:17;;;;;;;10.47;9.37;;;;;;;;;;6290203;22;20405;-94
2021/06/03 01:38:43;;;;;;;9.60;8.17;;;;;;;;;;6287425;22;20421;-94
2021/06/03 01:41:10;;;;;;;10.83;9.40;;;;;;;;;;6288126;22;20443;-93
2021/06/03 01:43:38;;;;;;;11.03;9.53;;;;;;;;;;6287332;22;20442;-93
2021/06/03 01:46:05;;;;;;;12.43;10.57;;;;;;;;;;6289570;22;20487;-94
2021/06/03 01:48:32;;;;;;;10.80;9.70;;;;;;;;;;6288796;22;20413;-94
2021/06/03 01:50:59;;;;;;;10.97;9.87;;;;;;;;;;6291977;22;20488;-95
2021/06/03 01:53:27;;;;;;;16.53;10.67;;;;;;;;;;6292354;22;20412;-95
2021/06/03 01:55:54;;;;;;;9.30;8.40;;;;;;;;;;6291650;22;20452;-95
2021/06/03 01:58:20;;;;;;;11.33;10.10;;;;;;;;;;6290381;22;20447;-95
2021/06/03 02:00:48;;;;;;;8.50;7.70;;;;;;;;;;6292562;22;20413;-95
2021/06/03 02:03:14;;;;;;;8.70;7.80;;;;;;;;;;6291676;22;20413;-94
2021/06/03 02:05:41;;;;;;;11.90;10.63;;;;;;;;;;6293983;22;20484;-95
2021/06/03 02:08:07;;;;;;;10.73;8.20;;;;;;;;;;6293433;22;20423;-95
2021/06/03 02:10:33;;;;;;;10.77;9.60;;;;;;;;;;6293738;22;20455;-94
2021/06/03 02:13:02;;;;;;;14.87;11.13;;;;;;;;;;6292259;22;20464;-94
2021/06/03 02:15:32;;;;;;;10.03;9.03;;;;;;;;;;6297328;22;20758;-94
2021/06/03 02:18:02;;;;;;;11.03;9.93;;;;;;;;;;6293091;22;20412;-94
2021/06/03 02:20:30;;;;;;;10.83;9.73;;;;;;;;;;6293304;22;20427;-96
2021/06/03 02:22:57;;;;;;;11.03;9.90;;;;;;;;;;6294447;22;20417;-96
2021/06/03 02:25:24;;;;;;;9.97;8.67;;;;;;;;;;6290674;22;20419;-95
2021/06/03 02:27:51;;;;;;;10.80;9.80;;;;;;;;;;6290814;22;20428;-95
2021/06/03 02:30:18;;;;;;;10.57;9.57;;;;;;;;;;6285776;22;20793;-95
2021/06/03 02:32:44;;;;;;;10.90;9.80;;;;;;;;;;6288131;22;20397;-96
2021/06/03 02:35:12;;;;;;;10.03;9.10;;;;;;;;;;6287897;22;20413;-96
2021/06/03 02:37:39;;;;;;;10.63;9.53;;;;;;;;;;6288891;22;20451;-95
2021/06/03 02:40:06;;;;;;;13.90;11.00;;;;;;;;;;6289890;22;20763;-96
2021/06/03 02:42:33;;;;;;;14.37;11.80;;;;;;;;;;6291142;22;20449;-96
2021/06/03 02:44:59;;;;;;;12.90;11.60;;;;;;;;;;6288212;22;20401;-96
2021/06/03 02:47:25;;;;;;;12.00;10.00;;;;;;;;;;6288823;22;20445;-96
2021/06/03 02:49:52;;;;;;;14.93;11.80;;;;;;;;;;6292657;22;20451;-95
2021/06/03 02:52:20;;;;;;;15.90;10.93;;;;;;;;;;6295761;22;20540;-96
2021/06/03 02:54:46;;;;;;;12.00;10.77;;;;;;;;;;6289841;22;20791;-96
2021/06/03 02:57:12;;;;;;;11.30;10.10;;;;;;;;;;6288854;22;20412;-96
2021/06/03 02:59:38;;;;;;;10.73;9.63;;;;;;;;;;6290088;22;20409;-95
2021/06/03 03:02:04;;;;;;;11.73;10.53;;;;;;;;;;6288675;22;20405;-92
2021/06/03 03:04:30;;;;;;;14.10;12.60;;;;;;;;;;6291128;22;20405;-95
2021/06/03 03:06:57;;;;;;;15.27;13.67;;;;;;;;;;6292944;22;20400;-94
2021/06/03 03:09:24;;;;;;;14.40;12.50;;;;;;;;;;6291633;22;20472;-96
2021/06/03 03:11:50;;;;;;;15.27;12.90;;;;;;;;;;6292280;22;20409;-96
2021/06/03 03:14:16;;;;;;;15.10;11.50;;;;;;;;;;6288320;22;20473;-96
2021/06/03 03:17:00;;;;;;;15.70;10.80;;;;;;;;;;6296367;22;20425;-96
2021/06/03 03:19:29;;;;;;;14.17;12.67;;;;;;;;;;6293645;22;20440;-96
2021/06/03 03:21:56;;;;;;;15.07;11.80;;;;;;;;;;6290098;22;20525;-96
2021/06/03 03:24:23;;;;;;;13.40;11.20;;;;;;;;;;6270967;22;20408;-96
2021/06/03 03:26:50;;;;;;;15.47;11.63;;;;;;;;;;6288215;22;20420;-96
2021/06/03 03:29:16;;;;;;;11.93;10.70;;;;;;;;;;6289399;22;20445;-96
2021/06/03 03:31:47;;;;;;;13.90;12.20;;;;;;;;;;6293134;22;20417;-96
2021/06/03 03:34:19;;;;;;;17.77;15.87;;;;;;;;;;6273982;22;20409;-96
2021/06/03 03:36:45;;;;;;;18.13;14.17;;;;;;;;;;6291572;22;20408;-96
2021/06/03 03:39:12;;;;;;;17.00;15.10;;;;;;;;;;6290564;22;20408;-96
2021/06/03 03:41:38;;;;;;;16.87;13.87;;;;;;;;;;6297289;22;20433;-95
2021/06/03 03:44:06;;;;;;;17.07;14.30;;;;;;;;;;6295220;22;20389;-96
2021/06/03 03:46:33;;;;;;;15.00;13.43;;;;;;;;;;6301747;22;20417;-96
2021/06/03 03:49:00;;;;;;;16.53;14.10;;;;;;;;;;6298693;22;20472;-96
2021/06/03 03:51:26;;;;;;;15.97;14.17;;;;;;;;;;6292644;22;20413;-96
2021/06/03 03:53:53;;;;;;;15.13;13.50;;;;;;;;;;6295388;22;20464;-96
2021/06/03 03:56:21;;;;;;;19.73;14.60;;;;;;;;;;6301944;22;20420;-96
2021/06/03 03:59:05;;;;;;;16.10;14.40;;;;;;;;;;6274025;22;20400;-96
2021/06/03 04:01:34;;;;;;;18.13;14.10;;;;;;;;;;6300645;22;20456;-96
2021/06/03 04:04:00;;;;;;;20.30;14.37;;;;;;;;;;6286433;22;20435;-95
2021/06/03 04:06:27;;;;;;;14.83;12.50;;;;;;;;;;6290610;22;20480;-96
2021/06/03 04:08:53;;;;;;;15.77;14.10;;;;;;;;;;6294736;22;20456;-95
2021/06/03 04:11:22;;;;;;;13.67;12.17;;;;;;;;;;6292009;22;20396;-94
2021/06/03 04:13:49;;;;;;;14.80;13.27;;;;;;;;;;6290539;22;20933;-94
2021/06/03 04:16:15;;;;;;;15.10;13.27;;;;;;;;;;6301940;22;20424;-96
2021/06/03 04:18:44;;;;;;;14.40;12.87;;;;;;;;;;6301454;22;20417;-95
2021/06/03 04:21:10;;;;;;;14.20;12.80;;;;;;;;;;6295414;22;20821;-96
2021/06/03 04:23:36;;;;;;;16.20;14.07;;;;;;;;;;6290846;22;20410;-95
2021/06/03 04:26:10;;;;;;;14.10;12.67;;;;;;;;;;6296975;22;20473;-96
2021/06/03 04:28:37;;;;;;;17.33;13.13;;;;;;;;;;6294034;22;20457;-95
2021/06/03 04:31:03;;;;;;;15.10;13.43;;;;;;;;;;6296732;22;20449;-96
2021/06/03 04:33:29;;;;;;;15.20;13.50;;;;;;;;;;6298496;22;20434;-95
2021/06/03 04:35:56;;;;;;;13.80;12.40;;;;;;;;;;6291378;22;20744;-96
2021/06/03 04:38:22;;;;;;;15.40;12.97;;;;;;;;;;6290810;22;20412;-96
2021/06/03 04:40:49;;;;;;;14.43;12.93;;;;;;;;;;6288805;22;20420;-95
2021/06/03 04:43:15;;;;;;;14.43;12.93;;;;;;;;;;6289762;22;20422;-93
2021/06/03 04:45:41;;;;;;;17.23;13.10;;;;;;;;;;6287779;22;20417;-95
2021/06/03 04:48:08;;;;;;;14.20;12.70;;;;;;;;;;6291859;22;20406;-96
2021/06/03 04:50:35;;;;;;;13.03;11.83;;;;;;;;;;6292622;22;20531;-94
2021/06/03 04:53:03;;;;;;;14.20;12.70;;;;;;;;;;6289622;22;20406;-96
2021/06/03 04:55:29;;;;;;;14.10;12.70;;;;;;;;;;6290528;22;20455;-93
2021/06/03 04:57:57;;;;;;;13.63;12.23;;;;;;;;;;6289714;22;20406;-96
2021/06/03 05:00:32;;;;;;;16.93;12.77;;;;;;;;;;6290892;22;20406;-95
2021/06/03 05:02:59;;;;;;;13.33;11.93;;;;;;;;;;6292198;22;20546;-94
2021/06/03 05:05:26;;;;;;;14.57;13.07;;;;;;;;;;6288172;22;20413;-94
2021/06/03 05:07:53;;;;;;;14.57;12.80;;;;;;;;;;6289738;22;20425;-95
2021/06/03 05:10:21;;;;;;;17.77;13.83;;;;;;;;;;6286428;22;20539;-94
2021/06/03 05:12:50;;;;;;;14.70;13.10;;;;;;;;;;6288129;22;20410;-95
2021/06/03 05:15:17;;;;;;;15.57;13.50;;;;;;;;;;6290005;22;20418;-94
2021/06/03 05:17:43;;;;;;;16.47;13.27;;;;;;;;;;6287858;22;20414;-94
2021/06/03 05:20:10;;;;;;;17.37;14.30;;;;;;;;;;6294535;22;20415;-94
2021/06/03 05:22:37;;;;;;;18.70;13.67;;;;;;;;;;6289197;22;20486;-96
2021/06/03 05:25:03;;;;;;;14.93;13.33;;;;;;;;;;6290428;22;20404;-95
2021/06/03 05:27:31;;;;;;;14.37;12.97;;;;;;;;;;6289234;22;20404;-94
2021/06/03 05:29:59;;;;;;;19.20;14.27;;;;;;;;;;6290406;22;20454;-95
2021/06/03 05:32:26;;;;;;;14.37;12.87;;;;;;;;;;6287909;22;20410;-96
2021/06/03 05:34:52;;;;;;;14.50;13.00;;;;;;;;;;6289364;22;20420;-94
2021/06/03 05:37:18;;;;;;;14.03;12.63;;;;;;;;;;6288426;22;20412;-95
2021/06/03 05:39:44;;;;;;;14.40;13.03;;;;;;;;;;6289291;22;20413;-95
2021/06/03 05:42:10;;;;;;;14.33;12.57;;;;;;;;;;6288020;22;20434;-94
2021/06/03 05:44:38;;;;;;;14.20;12.70;;;;;;;;;;6287334;22;20416;-92
2021/06/03 05:47:04;;;;;;;14.30;12.87;;;;;;;;;;6284523;22;20959;-94
2021/06/03 05:49:30;;;;;;;14.37;12.87;;;;;;;;;;6287752;22;20460;-94
2021/06/03 05:52:01;;;;;;;15.07;13.30;;;;;;;;;;6288678;22;20407;-94
2021/06/03 05:54:27;;;;;;;14.43;13.07;;;;;;;;;;6288560;22;20416;-95
2021/06/03 05:56:53;;;;;;;13.90;12.33;;;;;;;;;;6289362;22;20411;-96
2021/06/03 05:59:20;;;;;;;12.90;11.70;;;;;;;;;;6287068;22;20415;-96
2021/06/03 06:01:48;;;;;;;12.47;11.27;;;;;;;;;;6289796;22;20476;-95
2021/06/03 06:05:57;;;;;;;14.53;11.37;;;;;;;;;;6287814;22;20424;-95
2021/06/03 06:07:06;;;;;;;10.43;9.53;;;;;;;;;;6291335;22;20393;-94
2021/06/03 06:09:32;;;;;;;14.67;11.77;;;;;;;;;;6288268;22;20448;-94
2021/06/03 06:11:58;;;;;;;13.17;11.87;;;;;;;;;;6290938;22;20208;-95
2021/06/03 06:14:25;;;;;;;14.17;12.50;;;;;;;;;;6278656;22;20454;-96
2021/06/03 06:16:53;;;;;;;12.63;11.33;;;;;;;;;;6258756;22;20420;-96
2021/06/03 06:19:19;;;;;;;15.57;12.87;;;;;;;;;;6257675;23;20402;-96
2021/06/03 06:21:45;;;;;;;12.37;11.23;;;;;;;;;;6257212;22;20922;-95
2021/06/03 06:24:12;;;;;;;14.27;12.83;;;;;;;;;;6257875;22;20410;-94
2021/06/03 06:26:38;;;;;;;12.67;11.57;;;;;;;;;;6262387;22;20410;-96
2021/06/03 06:29:04;;;;;;;14.77;11.20;;;;;;;;;;6259249;22;20410;-96
2021/06/03 06:31:31;;;;;;;12.43;10.10;;;;;;;;;;6261733;22;20406;-96
2021/06/03 06:34:00;;;;;;;14.17;12.20;;;;;;;;;;6260906;22;20545;-96
2021/06/03 06:36:26;;;;;;;12.50;11.30;;;;;;;;;;6262338;22;20466;-96
2021/06/03 06:38:53;;;;;;;14.30;10.03;;;;;;;;;;6261972;22;20447;-96
2021/06/03 06:41:20;;;;;;;14.93;11.27;;;;;;;;;;6259378;22;20402;-96
2021/06/03 06:43:46;;;;;;;13.10;11.50;;;;;;;;;;6260084;22;20449;-96
2021/06/03 06:46:27;;;;;;;11.27;10.07;;;;;;;;;;6260334;22;20421;-96
2021/06/03 06:48:54;;;;;;;18.53;11.47;;;;;;;;;;6264637;22;20489;-96
2021/06/03 06:51:24;;;;;;;11.70;10.50;;;;;;;;;;6240015;23;20448;-95
2021/06/03 06:53:50;;;;;;;11.97;10.47;;;;;;;;;;6259732;22;20424;-96
2021/06/03 06:56:16;;;;;;;11.67;10.50;;;;;;;;;;6258175;22;20405;-95
2021/06/03 06:58:42;;;;;;;13.10;10.93;;;;;;;;;;6257866;22;20414;-96
2021/06/03 07:01:08;;;;;;;11.40;10.20;;;;;;;;;;6255572;22;20406;-96
2021/06/03 07:03:35;;;;;;;12.27;10.30;;;;;;;;;;6253009;22;20481;-96
2021/06/03 07:06:01;;;;;;;13.17;10.00;;;;;;;;;;6256805;22;20410;-96
2021/06/03 07:08:28;;;;;;;16.80;9.70;;;;;;;;;;6259702;22;20418;-96
2021/06/03 07:10:55;;;;;;;11.63;10.37;;;;;;;;;;6257643;22;20456;-96
2021/06/03 07:13:21;;;;;;;12.20;9.57;;;;;;;;;;6254694;22;20457;-96
2021/06/03 07:18:35;;;;;;;14.57;9.43;;;;;;;;;;6292768;22;20411;-95
2021/06/03 07:21:01;;;;;;;12.20;8.10;;;;;;;;;;6294609;22;20432;-95
2021/06/03 07:23:29;;;;;;;10.67;8.43;;;;;;;;;;6294317;22;20439;-96
2021/06/03 07:25:58;;;;;;;11.03;8.40;;;;;;;;;;6296894;22;20416;-94
2021/06/03 07:28:27;;;;;;;9.70;7.60;;;;;;;;;;6282667;22;20466;-96
2021/06/03 07:30:55;;;;;;;8.40;7.60;;;;;;;;;;6294929;22;20452;-94
2021/06/03 07:33:21;;;;;;;8.97;8.17;;;;;;;;;;6293524;22;20440;-95
2021/06/03 07:35:47;;;;;;;8.50;7.00;;;;;;;;;;6295731;22;20416;-96
2021/06/03 07:38:14;;;;;;;7.10;6.40;;;;;;;;;;6295546;22;20421;-95
2021/06/03 07:40:52;;;;;;;6.83;6.13;;;;;;;;;;6298105;22;20470;-96
2021/06/03 07:43:24;;;;;;;12.00;7.20;;;;;;;;;;6297797;22;21046;-96
2021/06/03 07:45:50;;;;;;;6.70;6.10;;;;;;;;;;6299483;22;20405;-96
2021/06/03 07:48:22;;;;;;;9.70;6.50;;;;;;;;;;6281057;22;20523;-96
2021/06/03 07:56:29;;;;;;;6.07;5.47;;;;;;;;;;6292660;22;20441;-96
2021/06/03 07:59:03;;;;;;;5.67;5.17;;;;;;;;;;6288003;22;20504;-96
2021/06/03 08:01:33;;;;;;;5.00;4.50;;;;;;;;;;6299004;22;20428;-96
2021/06/03 08:04:13;;;;;;;9.10;5.37;;;;;;;;;;6288263;22;20460;-95
2021/06/03 08:06:47;;;;;;;4.87;4.27;;;;;;;;;;6291372;22;20524;-94
2021/06/03 08:09:13;;;;;;;5.57;3.80;;;;;;;;;;6296580;22;20439;-96
2021/06/03 08:11:58;;;;;;;4.50;4.10;;;;;;;;;;6295849;22;20449;-95
2021/06/03 08:14:37;;;;;;;4.80;4.30;;;;;;;;;;6296962;22;20458;-96
2021/06/03 08:17:07;;;;;;;5.00;4.60;;;;;;;;;;6288676;22;20462;-96
2021/06/03 08:19:33;;;;;;;5.57;5.07;;;;;;;;;;6296318;22;20485;-95
2021/06/03 08:21:59;;;;;;;5.20;4.70;;;;;;;;;;6294931;22;20451;-95
2021/06/03 08:24:25;;;;;;;5.07;4.57;;;;;;;;;;6291890;22;21036;-93
2021/06/03 08:26:53;;;;;;;5.00;4.53;;;;;;;;;;6294119;22;20445;-94
2021/06/03 08:29:20;;;;;;;6.10;4.57;;;;;;;;;;6289936;22;20393;-96
2021/06/03 08:32:09;;;;;;;4.87;4.37;;;;;;;;;;6292561;22;20416;-94
2021/06/03 08:34:37;;;;;;;6.97;4.70;;;;;;;;;;6292747;22;20420;-94
2021/06/03 08:37:06;;;;;;;5.20;4.70;;;;;;;;;;6296533;22;20396;-95
2021/06/03 08:39:39;;;;;;;5.87;4.50;;;;;;;;;;6297072;22;20414;-95
2021/06/03 08:42:13;;;;;;;6.60;4.60;;;;;;;;;;6299608;22;20418;-96
2021/06/03 08:44:44;;;;;;;5.17;4.67;;;;;;;;;;6299560;22;20454;-96
2021/06/03 08:47:11;;;;;;;5.37;4.80;;;;;;;;;;6278110;22;20518;-96
2021/06/03 08:49:40;;;;;;;6.37;4.37;;;;;;;;;;6260852;22;20492;-96
2021/06/03 08:52:07;;;;;;;4.53;4.00;;;;;;;;;;6263956;23;20490;-95
2021/06/03 08:54:42;;;;;;;4.90;4.50;;;;;;;;;;6235388;23;20434;-95
2021/06/03 09:03:27;;;;;;;4.30;3.90;;;;;;;;;;6300404;22;20407;-95
2021/06/03 09:11:19;;;;;;;5.17;4.70;;;;;;;;;;6296839;22;20451;-96
2021/06/03 09:13:50;;;;;;;5.20;4.47;;;;;;;;;;6298008;22;20417;-96
2021/06/03 09:16:24;;;;;;;4.93;4.37;;;;;;;;;;6290049;22;20465;-95
2021/06/03 09:19:00;;;;;;;5.40;4.60;;;;;;;;;;6294389;22;20416;-95
2021/06/03 09:21:29;;;;;;;5.50;5.00;;;;;;;;;;6294024;22;20408;-95
2021/06/03 09:24:00;;;;;;;4.63;4.23;;;;;;;;;;6296073;22;20412;-95
2021/06/03 09:26:50;;;;;;;8.20;4.70;;;;;;;;;;6268854;22;20436;-96
2021/06/03 09:34:57;;;;;;;4.80;4.40;;;;;;;;;;6275434;22;20456;-96
2021/06/03 09:37:35;;;;;;;4.93;4.53;;;;;;;;;;6303130;22;20417;-96
2021/06/03 09:40:25;;;;;;;5.03;4.60;;;;;;;;;;6279481;22;20453;-96
2021/06/03 09:43:11;;;;;;;4.83;4.50;;;;;;;;;;6294665;22;20487;-95
2021/06/03 09:45:52;;;;;;;7.03;5.00;;;;;;;;;;6292837;22;20894;-94
2021/06/03 09:48:36;;;;;;;7.70;5.03;;;;;;;;;;6295243;22;20409;-96
2021/06/03 09:51:34;;;;;;;5.43;4.93;;;;;;;;;;6295742;22;20479;-96
2021/06/03 09:57:08;;;;;;;7.20;4.90;;;;;;;;;;6242459;22;20391;-93
2021/06/03 10:02:29;;;;;;;5.20;4.70;;;;;;;;;;6298981;22;20420;-96
2021/06/03 10:05:10;;;;;;;4.63;4.17;;;;;;;;;;6300671;22;20413;-96
2021/06/03 10:07:37;;;;;;;6.93;4.23;;;;;;;;;;6297889;22;20428;-95
2021/06/03 10:10:06;;;;;;;4.77;4.20;;;;;;;;;;6299678;22;20479;-96
2021/06/03 10:12:36;;;;;;;5.10;4.60;;;;;;;;;;6296750;22;20402;-95
2021/06/03 10:18:00;;;;;;;4.63;4.27;;;;;;;;;;6296369;22;20411;-95
2021/06/03 10:20:35;;;;;;;5.07;4.33;;;;;;;;;;6300310;22;20426;-96
2021/06/03 10:23:08;;;;;;;4.80;4.40;;;;;;;;;;6296231;22;20411;-96
2021/06/03 10:25:43;;;;;;;5.00;4.50;;;;;;;;;;6300963;22;20407;-95
2021/06/03 10:28:11;;;;;;;8.00;5.00;;;;;;;;;;6304504;22;20416;-96
2021/06/03 10:30:42;;;;;;;4.60;4.30;;;;;;;;;;6299483;22;20449;-96
2021/06/03 10:33:35;;;;;;;4.60;4.20;;;;;;;;;;6297200;22;20426;-95
2021/06/03 10:36:17;;;;;;;7.97;5.20;;;;;;;;;;6299019;22;20464;-96
2021/06/03 10:38:45;;;;;;;4.53;4.23;;;;;;;;;;6297061;22;20484;-96
2021/06/03 10:44:11;;;;;;;8.10;4.83;;;;;;;;;;6288000;22;20438;-95
2021/06/03 10:46:39;;;;;;;5.33;4.73;;;;;;;;;;6235554;23;20477;-96
2021/06/03 10:49:12;;;;;;;6.90;4.30;;;;;;;;;;6234550;23;20470;-96
2021/06/03 10:54:55;;;;;;;5.10;4.70;;;;;;;;;;6291565;22;20400;-96
2021/06/03 11:00:38;;;;;;;4.60;4.30;;;;;;;;;;6296537;22;20462;-95
2021/06/03 11:03:40;;;;;;;4.13;3.83;;;;;;;;;;6300137;22;20406;-96
2021/06/03 11:09:11;;;;;;;4.90;4.50;;;;;;;;;;6297590;22;20428;-96
2021/06/03 11:11:45;;;;;;;5.40;4.90;;;;;;;;;;6297183;22;20452;-96
2021/06/03 11:14:14;;;;;;;5.13;4.70;;;;;;;;;;6295824;22;20471;-96
2021/06/03 11:16:53;;;;;;;4.83;4.30;;;;;;;;;;6294647;22;20423;-96
2021/06/03 11:19:22;;;;;;;5.30;4.90;;;;;;;;;;6295341;22;20412;-95
2021/06/03 11:21:49;;;;;;;5.30;4.80;;;;;;;;;;6295806;22;20423;-96
2021/06/03 11:24:33;;;;;;;4.93;4.53;;;;;;;;;;6296677;22;20408;-95
2021/06/03 11:27:05;;;;;;;4.83;4.43;;;;;;;;;;6295338;22;20423;-96
2021/06/03 11:29:57;;;;;;;4.43;4.10;;;;;;;;;;6267415;22;20456;-96
2021/06/03 11:32:32;;;;;;;4.30;4.00;;;;;;;;;;6298363;22;20404;-95
2021/06/03 11:35:18;;;;;;;5.40;4.90;;;;;;;;;;6298758;22;20400;-96
2021/06/03 11:37:49;;;;;;;6.37;4.40;;;;;;;;;;6296904;22;20488;-95
2021/06/03 11:43:12;;;;;;;4.20;4.00;;;;;;;;;;6268207;23;20444;-96
2021/06/03 11:45:49;;;;;;;4.30;4.00;;;;;;;;;;6233625;22;20457;-95
2021/06/03 11:48:20;;;;;;;4.90;4.60;;;;;;;;;;6266590;23;20400;-96
2021/06/03 11:51:10;;;;;;;5.73;4.43;;;;;;;;;;6267264;23;20459;-96
2021/06/03 11:53:50;;;;;;;4.63;4.23;;;;;;;;;;6265641;23;20420;-96
2021/06/03 11:59:08;;;;;;;6.50;5.97;;;;;;;;;;6282691;22;20448;-96
2021/06/03 12:01:44;;;;;;;6.70;4.70;;;;;;;;;;6297369;22;20397;-96
2021/06/03 12:04:23;;;;;;;6.43;5.53;;;;;;;;;;6285613;22;20440;-96
2021/06/03 12:06:49;;;;;;;5.70;3.90;;;;;;;;;;6299056;22;20420;-96
2021/06/03 12:09:25;;;;;;;4.53;4.23;;;;;;;;;;6298286;22;20432;-96
2021/06/03 12:11:56;;;;;;;4.30;3.90;;;;;;;;;;6299532;22;20444;-95
2021/06/03 12:14:42;;;;;;;4.27;4.00;;;;;;;;;;6273904;22;20451;-94
2021/06/03 12:17:19;;;;;;;4.83;4.43;;;;;;;;;;6283405;22;20411;-95
2021/06/03 12:19:51;;;;;;;4.47;3.80;;;;;;;;;;6298915;22;20412;-96
2021/06/03 12:27:37;;;;;;;4.70;4.00;;;;;;;;;;6303025;22;20404;-96
2021/06/03 12:30:17;;;;;;;4.03;3.63;;;;;;;;;;6303631;22;20450;-96
2021/06/03 12:33:03;;;;;;;4.40;3.50;;;;;;;;;;6296523;22;20426;-95
2021/06/03 12:35:40;;;;;;;3.97;3.67;;;;;;;;;;6300984;22;20416;-96
2021/06/03 12:38:08;;;;;;;5.70;4.10;;;;;;;;;;6302491;22;20462;-96
2021/06/03 12:40:37;;;;;;;3.90;3.60;;;;;;;;;;6297772;22;20511;-95
2021/06/03 12:43:07;;;;;;;4.43;4.03;;;;;;;;;;6296559;22;20415;-96
2021/06/03 12:45:46;;;;;;;4.70;3.27;;;;;;;;;;6297394;22;20417;-96
2021/06/03 12:48:22;;;;;;;4.23;3.83;;;;;;;;;;6298147;22;20507;-96
2021/06/03 12:50:49;;;;;;;4.30;3.50;;;;;;;;;;6297607;22;20460;-96
2021/06/03 12:53:16;;;;;;;3.70;3.50;;;;;;;;;;6295467;22;20421;-95
2021/06/03 12:55:44;;;;;;;4.97;4.53;;;;;;;;;;6294982;22;20434;-96
2021/06/03 12:58:12;;;;;;;4.10;3.80;;;;;;;;;;6297920;22;20412;-96
2021/06/03 13:00:39;;;;;;;3.93;3.63;;;;;;;;;;6296178;22;20424;-96
2021/06/03 13:03:28;;;;;;;4.20;3.90;;;;;;;;;;6298532;22;20423;-96
2021/06/03 13:06:03;;;;;;;4.40;4.10;;;;;;;;;;6297563;22;20397;-96
2021/06/03 13:08:43;;;;;;;5.23;3.90;;;;;;;;;;6298998;22;20431;-96
2021/06/03 13:11:09;;;;;;;5.53;3.80;;;;;;;;;;6299698;22;20460;-96
2021/06/03 13:13:35;;;;;;;4.70;3.70;;;;;;;;;;6297497;22;20416;-96
2021/06/03 13:16:31;;;;;;;4.17;3.87;;;;;;;;;;6301628;22;20400;-96
2021/06/03 13:19:08;;;;;;;4.87;4.07;;;;;;;;;;6298595;22;20411;-96
2021/06/03 13:21:36;;;;;;;5.13;4.00;;;;;;;;;;6276924;22;20393;-94
2021/06/03 13:24:13;;;;;;;6.50;4.23;;;;;;;;;;6272611;22;20552;-96
2021/06/03 13:26:40;;;;;;;4.73;4.40;;;;;;;;;;6298407;22;20431;-96
2021/06/03 13:29:06;;;;;;;4.23;3.93;;;;;;;;;;6299389;22;20401;-96
2021/06/03 13:31:45;;;;;;;4.67;4.33;;;;;;;;;;6298154;22;20530;-96
2021/06/03 13:34:32;;;;;;;4.17;3.83;;;;;;;;;;6298420;22;20480;-96
2021/06/03 13:37:19;;;;;;;4.40;4.00;;;;;;;;;;6266455;22;20484;-96
2021/06/03 13:40:02;;;;;;;4.67;4.27;;;;;;;;;;6280259;22;20409;-96
2021/06/03 13:42:35;;;;;;;4.50;4.10;;;;;;;;;;6299998;22;20458;-95
2021/06/03 13:47:52;;;;;;;5.27;4.40;;;;;;;;;;6300678;22;20448;-96
2021/06/03 13:50:49;;;;;;;6.40;4.73;;;;;;;;;;6286921;22;20435;-96
2021/06/03 13:53:56;;;;;;;4.87;4.17;;;;;;;;;;6293971;22;20436;-94
2021/06/03 14:02:06;;;;;;;8.73;3.90;;;;;;;;;;6299120;22;20505;-96
2021/06/03 14:07:23;;;;;;;4.00;3.70;;;;;;;;;;6297072;22;20411;-96
2021/06/03 14:10:06;;;;;;;5.30;4.13;;;;;;;;;;6272410;22;20416;-96
2021/06/03 14:12:39;;;;;;;4.30;3.90;;;;;;;;;;6298935;22;20430;-96
2021/06/03 14:15:16;;;;;;;4.30;3.90;;;;;;;;;;6272266;22;20417;-96
2021/06/03 14:17:43;;;;;;;4.73;4.30;;;;;;;;;;6298558;22;20409;-96
2021/06/03 14:20:33;;;;;;;4.47;4.17;;;;;;;;;;6300081;22;20420;-95
2021/06/03 14:23:02;;;;;;;5.60;4.23;;;;;;;;;;6298392;22;20490;-95
2021/06/03 14:25:37;;;;;;;4.20;3.80;;;;;;;;;;6298555;22;20413;-95
2021/06/03 14:28:14;;;;;;;9.10;3.67;;;;;;;;;;6297497;22;20486;-95
2021/06/03 14:30:54;;;;;;;4.27;3.70;;;;;;;;;;6295595;22;20439;-94
2021/06/03 14:33:22;;;;;;;4.73;4.27;;;;;;;;;;6295632;22;20443;-95
2021/06/03 14:35:53;;;;;;;4.13;3.83;;;;;;;;;;6296040;22;20494;-96
2021/06/03 14:38:22;;;;;;;4.43;3.90;;;;;;;;;;6295418;22;20437;-95
2021/06/03 14:40:56;;;;;;;4.10;3.80;;;;;;;;;;6295287;22;20410;-96
2021/06/03 14:43:31;;;;;;;4.47;4.10;;;;;;;;;;6288389;22;20424;-95
2021/06/03 14:46:07;;;;;;;4.23;3.83;;;;;;;;;;6294018;22;20418;-96
2021/06/03 14:48:37;;;;;;;3.97;3.57;;;;;;;;;;6297070;22;20416;-96
2021/06/03 14:51:14;;;;;;;4.17;3.87;;;;;;;;;;6283857;22;20481;-94
2021/06/03 14:53:46;;;;;;;4.43;3.67;;;;;;;;;;6294493;22;21171;-95
2021/06/03 14:56:15;;;;;;;3.93;3.63;;;;;;;;;;6291595;22;20526;-95
2021/06/03 14:58:49;;;;;;;8.60;4.13;;;;;;;;;;6295139;22;20412;-96
2021/06/03 15:01:20;;;;;;;4.03;3.67;;;;;;;;;;6296230;22;20399;-96
2021/06/03 15:03:54;;;;;;;4.23;3.67;;;;;;;;;;5523343;22;16583276;-96
2021/06/03 15:06:42;;;;;;;4.87;3.83;;;;;;;;;;6291948;22;20176;-95
2021/06/03 15:09:09;;;;;;;3.67;3.37;;;;;;;;;;6297100;22;20470;-96
2021/06/03 15:11:42;;;;;;;4.17;3.87;;;;;;;;;;6303711;22;20510;-95
2021/06/03 15:14:27;;;;;;;4.33;4.03;;;;;;;;;;6296398;22;20411;-96
2021/06/03 15:16:53;;;;;;;4.17;3.67;;;;;;;;;;6269006;22;20754;-96
2021/06/03 15:19:29;;;;;;;4.57;4.17;;;;;;;;;;6294040;22;20411;-96
2021/06/03 15:22:00;;;;;;;9.73;3.47;;;;;;;;;;6293033;22;20463;-96
2021/06/03 15:30:11;;;;;;;8.50;3.70;;;;;;;;;;6296467;22;20413;-96
2021/06/03 15:32:39;;;;;;;3.90;3.60;;;;;;;;;;6296526;22;20471;-96
2021/06/03 15:35:09;;;;;;;3.60;3.30;;;;;;;;;;6294304;22;20401;-95
2021/06/03 15:37:38;;;;;;;5.70;3.90;;;;;;;;;;6286274;22;20446;-95
2021/06/03 15:40:06;;;;;;;3.87;3.43;;;;;;;;;;6287113;22;20486;-96
2021/06/03 15:42:32;;;;;;;4.00;3.50;;;;;;;;;;6291370;22;20406;-96
2021/06/03 15:45:07;;;;;;;4.00;3.40;;;;;;;;;;6294020;22;20414;-96
2021/06/03 15:47:37;;;;;;;3.97;3.53;;;;;;;;;;6295446;22;20457;-95
2021/06/03 15:50:08;;;;;;;3.40;3.10;;;;;;;;;;6290612;22;20451;-95
2021/06/03 15:52:37;;;;;;;3.40;3.20;;;;;;;;;;6294164;22;21032;-93
2021/06/03 15:55:05;;;;;;;3.87;3.47;;;;;;;;;;6292182;22;20483;-95
2021/06/03 15:57:31;;;;;;;4.23;3.87;;;;;;;;;;6291950;22;20410;-92
2021/06/03 15:59:58;;;;;;;4.10;3.83;;;;;;;;;;6291836;22;20430;-96
2021/06/03 16:02:26;;;;;;;4.20;3.80;;;;;;;;;;6295712;22;20402;-96
2021/06/03 16:04:52;;;;;;;4.10;3.80;;;;;;;;;;6296018;22;20475;-96
2021/06/03 16:07:22;;;;;;;4.57;4.27;;;;;;;;;;6300035;22;20412;-95
2021/06/03 16:09:53;;;;;;;4.37;3.80;;;;;;;;;;6305569;22;20468;-96
2021/06/03 16:12:19;;;;;;;4.00;3.70;;;;;;;;;;6297372;22;20481;-95
2021/06/03 16:14:45;;;;;;;4.00;3.63;;;;;;;;;;6296973;22;20405;-96
2021/06/03 16:17:11;;;;;;;3.73;3.43;;;;;;;;;;6295275;22;20404;-96
2021/06/03 16:19:39;;;;;;;5.50;3.57;;;;;;;;;;6295302;22;20449;-96